Time;durP1;ratioP1;P1;durP2;ratioP2;P2;SDS_P1;SDS_P2;PMS_P1;PMS_P2;Temp;Humidity;BMP_temperature;BMP_pressure;BME280_temperature;BME280_humidity;BME280_pressure;Samples;Min_cycle;Max_cycle;Signal;HPM_P1;HPM_P2
2022/06/21 00:01:28;;;;;;;7.22;3.40;;;24.80;98.70;;;;;;5050867;28;20070;-80
2022/06/21 00:03:54;;;;;;;7.95;2.88;;;24.90;97.90;;;;;;5051730;28;20461;-80
2022/06/21 00:06:23;;;;;;;6.22;2.45;;;24.90;97.70;;;;;;5069592;28;20504;-79
2022/06/21 00:08:49;;;;;;;9.40;3.38;;;24.90;97.40;;;;;;5066487;28;20895;-79
2022/06/21 00:11:27;;;;;;;8.40;2.95;;;25.00;97.40;;;;;;5068895;28;20310;-79
2022/06/21 00:13:53;;;;;;;7.80;3.17;;;25.00;97.50;;;;;;5069131;28;20028;-78
2022/06/21 00:16:19;;;;;;;5.72;2.72;;;24.90;97.00;;;;;;5068795;28;20544;-79
2022/06/21 00:18:47;;;;;;;8.43;2.85;;;24.90;96.80;;;;;;5067618;28;20116;-79
2022/06/21 00:21:20;;;;;;;7.63;2.97;;;24.90;96.70;;;;;;5067411;28;20060;-79
2022/06/21 00:23:47;;;;;;;9.73;2.70;;;24.90;96.50;;;;;;5068894;28;20078;-79
2022/06/21 00:26:14;;;;;;;8.52;2.95;;;24.90;95.90;;;;;;5067046;28;20059;-80
2022/06/21 00:28:41;;;;;;;7.90;2.83;;;24.90;95.50;;;;;;5068521;28;20032;-80
2022/06/21 00:31:24;;;;;;;9.85;2.90;;;24.90;95.30;;;;;;5068001;28;20271;-80
2022/06/21 00:33:50;;;;;;;5.57;2.60;;;24.90;95.30;;;;;;5068610;28;20123;-79
2022/06/21 00:36:19;;;;;;;4.47;2.72;;;24.90;94.90;;;;;;5068453;28;20780;-80
2022/06/21 00:38:45;;;;;;;7.43;2.58;;;25.00;94.90;;;;;;5068368;28;20086;-79
2022/06/21 00:41:13;;;;;;;7.68;2.85;;;25.00;94.70;;;;;;5050427;28;20035;-79
2022/06/21 00:43:44;;;;;;;13.00;2.58;;;25.00;94.20;;;;;;5067556;28;20025;-79
2022/06/21 00:46:37;;;;;;;10.00;3.17;;;25.00;93.50;;;;;;5066944;28;20564;-79
2022/06/21 00:49:10;;;;;;;11.60;2.90;;;25.00;92.30;;;;;;5066889;28;20024;-79
2022/06/21 00:51:40;;;;;;;7.82;3.28;;;25.00;92.00;;;;;;5067140;28;20040;-79
2022/06/21 00:54:21;;;;;;;11.70;2.45;;;25.00;91.70;;;;;;5067229;28;20036;-80
2022/06/21 00:57:11;;;;;;;9.77;2.30;;;25.00;91.60;;;;;;5066366;28;20029;-80
2022/06/21 00:59:38;;;;;;;5.82;2.30;;;25.10;91.50;;;;;;5067919;28;20024;-80
2022/06/21 01:02:14;;;;;;;7.60;2.80;;;25.10;91.60;;;;;;5066974;28;20642;-80
2022/06/21 01:04:41;;;;;;;;;;;25.00;91.80;;;;;;5068023;28;20028;-80
2022/06/21 01:07:10;;;;;;;5.03;1.67;;;25.00;92.30;;;;;;5049595;28;19954;-80
2022/06/21 01:09:42;;;;;;;5.78;2.00;;;25.00;92.60;;;;;;5066737;28;20505;-80
2022/06/21 01:12:23;;;;;;;8.10;2.60;;;25.00;92.60;;;;;;5065939;28;20020;-80
2022/06/21 01:15:19;;;;;;;6.65;2.10;;;24.90;92.60;;;;;;5065875;28;20115;-80
2022/06/21 01:17:47;;;;;;;5.07;1.98;;;24.90;92.40;;;;;;5064745;28;20036;-80
2022/06/21 01:20:19;;;;;;;7.13;1.67;;;24.90;91.50;;;;;;5066000;28;20016;-79
2022/06/21 01:23:21;;;;;;;6.45;1.85;;;24.90;90.20;;;;;;5065710;28;20024;-80
2022/06/21 01:25:55;;;;;;;7.22;1.67;;;24.90;86.60;;;;;;4988797;28;20025;-80
2022/06/21 01:28:21;;;;;;;6.78;1.75;;;24.90;84.90;;;;;;5058486;28;20461;-80
2022/06/21 01:30:55;;;;;;;5.03;1.42;;;24.90;83.80;;;;;;5065925;28;20090;-80
2022/06/21 01:33:34;;;;;;;6.00;1.92;;;24.90;82.10;;;;;;5067164;28;20124;-79
2022/06/21 01:36:07;;;;;;;4.53;1.23;;;24.90;81.30;;;;;;5048710;28;20040;-80
2022/06/21 01:38:44;;;;;;;5.78;1.88;;;24.90;80.20;;;;;;5067077;28;20032;-80
2022/06/21 01:41:14;;;;;;;5.63;1.73;;;24.90;79.80;;;;;;5066079;28;20028;-79
2022/06/21 01:43:44;;;;;;;6.13;1.60;;;24.90;78.80;;;;;;5066945;28;20043;-80
2022/06/21 01:46:16;;;;;;;9.10;1.50;;;24.90;78.10;;;;;;5067420;28;20024;-80
2022/06/21 01:48:51;;;;;;;8.05;1.38;;;24.90;78.10;;;;;;5065639;28;20025;-80
2022/06/21 01:51:25;;;;;;;7.88;1.50;;;24.90;78.20;;;;;;5065483;28;20032;-80
2022/06/21 01:53:52;;;;;;;4.50;1.20;;;24.90;78.10;;;;;;5048861;28;20032;-80
2022/06/21 01:56:21;;;;;;;6.60;1.50;;;24.80;78.00;;;;;;5067417;28;20425;-80
2022/06/21 01:59:11;;;;;;;3.45;1.10;;;24.70;78.00;;;;;;5066462;28;20027;-79
2022/06/21 02:01:46;;;;;;;4.25;1.15;;;24.70;78.10;;;;;;5047457;28;20094;-79
2022/06/21 02:04:17;;;;;;;4.47;1.30;;;24.60;78.30;;;;;;5048879;28;20028;-80
2022/06/21 02:06:45;;;;;;;5.05;1.45;;;24.50;78.80;;;;;;5050183;28;20033;-79
2022/06/21 02:09:44;;;;;;;7.13;1.67;;;24.50;79.40;;;;;;5065538;28;20035;-80
2022/06/21 02:12:12;;;;;;;4.80;1.50;;;24.30;80.50;;;;;;5065342;28;20324;-80
2022/06/21 02:14:58;;;;;;;6.97;1.40;;;24.20;81.40;;;;;;5066064;28;20064;-80
2022/06/21 02:17:23;;;;;;;8.67;1.70;;;24.20;82.60;;;;;;5048514;28;20016;-80
2022/06/21 02:20:16;;;;;;;2.95;1.55;;;24.00;83.30;;;;;;5065479;28;20051;-80
2022/06/21 02:22:42;;;;;;;6.55;1.13;;;23.90;85.10;;;;;;5064540;28;20025;-80
2022/06/21 02:25:15;;;;;;;3.80;1.25;;;23.80;85.40;;;;;;5065676;28;20031;-81
2022/06/21 02:27:41;;;;;;;2.65;1.40;;;23.70;86.10;;;;;;5066501;28;20028;-81
2022/06/21 02:30:16;;;;;;;7.05;1.90;;;23.60;86.80;;;;;;5066304;28;20725;-81
2022/06/21 02:32:42;;;;;;;5.47;2.15;;;23.60;87.50;;;;;;5064001;28;20060;-80
2022/06/21 02:35:36;;;;;;;7.03;1.63;;;23.40;88.00;;;;;;5065026;28;20040;-81
2022/06/21 02:38:06;;;;;;;8.13;2.03;;;23.40;89.00;;;;;;5064597;28;20136;-80
2022/06/21 02:40:37;;;;;;;4.53;1.45;;;23.30;90.10;;;;;;5048145;28;20115;-81
2022/06/21 02:43:09;;;;;;;8.40;1.92;;;23.30;90.00;;;;;;5064631;28;20132;-79
2022/06/21 02:45:53;;;;;;;2.40;1.40;;;23.20;90.30;;;;;;5064800;28;20115;-80
2022/06/21 02:48:30;;;;;;;4.53;1.58;;;23.10;90.40;;;;;;5065622;28;20110;-80
2022/06/21 02:51:05;;;;;;;5.57;2.00;;;23.00;90.80;;;;;;5064798;28;20024;-81
2022/06/21 02:53:38;;;;;;;8.35;2.10;;;23.00;90.90;;;;;;5064420;28;20078;-80
2022/06/21 02:56:31;;;;;;;6.57;1.90;;;22.90;91.10;;;;;;5064956;28;20082;-81
2022/06/21 02:58:59;;;;;;;8.18;1.92;;;22.90;91.50;;;;;;5066339;28;20020;-80
2022/06/21 03:01:37;;;;;;;4.70;1.90;;;22.80;91.70;;;;;;5064450;28;20051;-80
2022/06/21 03:04:04;;;;;;;3.72;1.60;;;22.70;91.80;;;;;;5064859;28;20090;-81
2022/06/21 03:06:32;;;;;;;3.35;2.10;;;22.70;91.90;;;;;;5065738;28;20082;-80
2022/06/21 03:09:02;;;;;;;4.75;1.52;;;22.60;92.10;;;;;;5065291;28;20064;-81
2022/06/21 03:11:34;;;;;;;8.68;1.48;;;22.50;92.00;;;;;;5064463;28;20493;-81
2022/06/21 03:14:03;;;;;;;8.85;2.03;;;22.40;92.20;;;;;;5047865;28;20078;-80
2022/06/21 03:16:30;;;;;;;5.20;1.77;;;22.40;92.20;;;;;;5064531;28;20032;-80
2022/06/21 03:19:00;;;;;;;12.07;1.73;;;22.40;92.10;;;;;;5064844;28;20111;-81
2022/06/21 03:21:34;;;;;;;3.30;1.50;;;22.40;92.30;;;;;;5065006;28;20025;-80
2022/06/21 03:24:06;;;;;;;4.68;1.30;;;22.40;92.40;;;;;;5047875;28;20059;-81
2022/06/21 03:26:34;;;;;;;8.02;2.00;;;22.30;92.50;;;;;;5048245;28;20032;-80
2022/06/21 03:28:59;;;;;;;4.72;1.60;;;22.30;92.60;;;;;;5064898;28;20469;-81
2022/06/21 03:31:48;;;;;;;5.15;1.52;;;22.40;92.70;;;;;;5065652;28;20083;-81
2022/06/21 03:34:16;;;;;;;4.93;1.55;;;22.40;92.20;;;;;;5065431;28;20032;-81
2022/06/21 03:36:43;;;;;;;3.08;1.55;;;22.40;92.10;;;;;;5047626;28;20068;-80
2022/06/21 03:39:17;;;;;;;3.10;1.17;;;22.40;92.00;;;;;;5066211;28;20386;-81
2022/06/21 03:41:44;;;;;;;6.90;1.65;;;22.40;92.00;;;;;;5048244;28;20115;-79
2022/06/21 03:44:15;;;;;;;3.50;1.58;;;22.40;92.00;;;;;;5067744;28;20036;-81
2022/06/21 03:47:15;;;;;;;2.10;1.30;;;22.40;91.90;;;;;;5074801;28;20025;-81
2022/06/21 03:50:01;;;;;;;3.45;1.83;;;22.30;92.00;;;;;;5074839;28;20025;-80
2022/06/21 03:52:45;;;;;;;5.60;1.30;;;22.20;91.90;;;;;;5070662;28;20020;-80
2022/06/21 03:55:33;;;;;;;4.15;1.70;;;22.20;92.00;;;;;;5052135;28;20378;-82
2022/06/21 03:58:05;;;;;;;3.63;1.17;;;22.10;92.00;;;;;;5068181;28;20052;-80
2022/06/21 04:00:40;;;;;;;2.95;1.30;;;22.10;92.10;;;;;;5050991;28;20037;-80
2022/06/21 04:03:28;;;;;;;6.07;1.58;;;22.20;91.80;;;;;;5069472;28;20024;-80
2022/06/21 04:06:16;;;;;;;5.10;1.83;;;22.30;91.50;;;;;;5019605;28;20036;-81
2022/06/21 04:09:00;;;;;;;2.78;1.02;;;22.40;91.10;;;;;;5051154;28;20071;-81
2022/06/21 04:11:36;;;;;;;8.02;1.55;;;22.50;90.90;;;;;;5067794;28;20020;-81
2022/06/21 04:14:05;;;;;;;4.95;1.27;;;22.70;90.40;;;;;;5069130;28;20038;-81
2022/06/21 04:16:44;;;;;;;3.83;1.40;;;22.90;90.00;;;;;;5067093;28;20075;-79
2022/06/21 04:19:23;;;;;;;3.88;1.30;;;22.80;89.30;;;;;;5068438;28;20039;-81
2022/06/21 04:21:56;;;;;;;2.85;1.10;;;22.70;86.30;;;;;;5067338;28;20112;-81
2022/06/21 04:24:56;;;;;;;6.72;1.33;;;22.70;85.70;;;;;;5067549;28;20029;-81
2022/06/21 04:27:39;;;;;;;2.15;1.40;;;22.90;83.90;;;;;;5068768;28;20025;-82
2022/06/21 04:30:33;;;;;;;4.88;1.10;;;23.10;82.80;;;;;;5066787;28;20520;-81
2022/06/21 04:33:05;;;;;;;3.95;1.45;;;23.40;81.20;;;;;;5037116;28;20467;-81
2022/06/21 04:36:00;;;;;;;4.85;1.38;;;23.50;79.40;;;;;;5068369;28;20044;-81
2022/06/21 04:38:59;;;;;;;2.58;0.93;;;23.60;77.90;;;;;;5068299;28;20095;-82
2022/06/21 04:41:45;;;;;;;6.30;1.25;;;23.70;77.60;;;;;;5050384;28;20046;-82
2022/06/21 04:44:21;;;;;;;4.60;1.35;;;23.80;75.90;;;;;;5050597;28;20024;-80
2022/06/21 04:46:58;;;;;;;2.55;1.10;;;23.80;75.60;;;;;;5050439;28;20096;-81
2022/06/21 04:49:33;;;;;;;2.63;1.00;;;23.80;75.30;;;;;;5050298;28;20025;-82
2022/06/21 04:52:13;;;;;;;2.47;1.38;;;23.80;75.40;;;;;;5066854;28;20032;-82
2022/06/21 04:54:39;;;;;;;4.15;0.95;;;23.80;74.20;;;;;;5049459;28;20335;-82
2022/06/21 04:57:33;;;;;;;2.33;0.82;;;23.70;73.10;;;;;;5068089;28;20200;-81
2022/06/21 05:00:10;;;;;;;6.25;1.58;;;23.70;73.30;;;;;;5045465;28;20047;-81
2022/06/21 05:02:43;;;;;;;3.13;1.20;;;23.80;73.10;;;;;;5049469;28;20051;-81
2022/06/21 05:05:21;;;;;;;3.70;1.05;;;23.80;72.50;;;;;;5067493;28;20587;-81
2022/06/21 05:07:58;;;;;;;4.75;1.20;;;23.80;72.00;;;;;;5049526;28;20029;-82
2022/06/21 05:10:30;;;;;;;6.07;1.25;;;23.70;71.20;;;;;;5068020;28;20052;-82
2022/06/21 05:12:59;;;;;;;3.38;1.58;;;23.70;71.20;;;;;;5050223;28;20491;-82
2022/06/21 05:15:31;;;;;;;1.67;0.70;;;23.80;69.70;;;;;;5050932;28;20386;-82
2022/06/21 05:18:38;;;;;;;2.75;0.90;;;23.70;69.90;;;;;;5049206;28;20036;-81
2022/06/21 05:21:12;;;;;;;3.13;0.95;;;23.90;69.50;;;;;;5050147;28;20670;-82
2022/06/21 05:23:38;;;;;;;2.97;0.90;;;24.00;67.80;;;;;;5065847;28;20032;-81
2022/06/21 05:26:12;;;;;;;8.25;1.17;;;24.10;65.20;;;;;;5049514;28;20526;-81
2022/06/21 05:28:44;;;;;;;2.05;0.80;;;24.10;63.60;;;;;;5049311;28;20060;-82
2022/06/21 05:31:17;;;;;;;2.35;1.00;;;24.10;62.60;;;;;;5066971;28;20044;-82
2022/06/21 05:33:49;;;;;;;2.22;0.75;;;24.20;63.20;;;;;;5049264;28;20028;-82
2022/06/21 05:36:20;;;;;;;2.78;0.70;;;24.30;62.70;;;;;;5049100;28;20044;-82
2022/06/21 05:38:58;;;;;;;1.98;0.85;;;24.60;61.70;;;;;;5065401;28;20481;-82
2022/06/21 05:41:31;;;;;;;2.35;0.82;;;24.80;59.80;;;;;;5065310;28;20032;-80
2022/06/21 05:44:13;;;;;;;3.30;1.10;;;25.10;56.20;;;;;;5049125;28;20542;-82
2022/06/21 05:46:44;;;;;;;2.90;0.70;;;25.50;54.00;;;;;;5065171;28;20050;-82
2022/06/21 05:49:37;;;;;;;2.05;0.70;;;25.80;53.50;;;;;;5048508;28;20033;-82
2022/06/21 05:52:20;;;;;;;1.75;0.82;;;26.20;50.80;;;;;;5066573;28;20024;-81
2022/06/21 05:54:56;;;;;;;1.88;0.77;;;26.60;50.10;;;;;;5066863;28;20028;-82
2022/06/21 05:57:25;;;;;;;2.55;0.68;;;27.60;48.90;;;;;;5065558;28;20027;-80
2022/06/21 05:59:51;;;;;;;3.60;1.15;;;29.10;45.70;;;;;;5048667;28;20107;-80
2022/06/21 06:02:32;;;;;;;2.15;0.90;;;30.60;40.80;;;;;;5065797;28;20767;-80
2022/06/21 06:05:23;;;;;;;1.20;0.60;;;31.80;37.10;;;;;;5065008;28;20178;-81
2022/06/21 06:07:55;;;;;;;1.95;0.70;;;33.30;33.40;;;;;;5064330;28;20044;-81
2022/06/21 06:10:22;;;;;;;2.58;0.70;;;34.00;31.50;;;;;;5066674;28;20109;-81
2022/06/21 06:12:54;;;;;;;1.55;0.60;;;34.90;30.50;;;;;;5048768;28;20032;-81
2022/06/21 06:15:27;;;;;;;3.38;0.90;;;35.60;29.60;;;;;;5048096;28;20536;-82
2022/06/21 06:18:06;;;;;;;1.98;0.80;;;36.60;27.30;;;;;;5066602;28;20055;-82
2022/06/21 06:20:40;;;;;;;3.08;0.68;;;37.20;25.20;;;;;;5065915;28;20036;-80
2022/06/21 06:23:35;;;;;;;1.75;0.65;;;36.90;23.60;;;;;;5065261;28;20540;-80
2022/06/21 06:26:15;;;;;;;0.73;0.60;;;36.60;23.80;;;;;;5053638;28;20036;-81
2022/06/21 06:28:56;;;;;;;1.67;0.60;;;36.70;22.80;;;;;;5048022;28;20082;-81
2022/06/21 06:31:28;;;;;;;4.97;0.50;;;37.20;21.70;;;;;;5066243;28;20579;-80
2022/06/21 06:34:01;;;;;;;9.13;0.60;;;37.60;20.30;;;;;;5066098;28;20039;-81
2022/06/21 06:36:33;;;;;;;2.45;0.50;;;37.50;19.90;;;;;;5065865;28;20070;-81
2022/06/21 06:39:00;;;;;;;1.17;0.40;;;37.80;19.60;;;;;;5064746;28;20039;-81
2022/06/21 06:41:35;;;;;;;0.90;0.55;;;37.70;20.10;;;;;;5066233;28;20054;-81
2022/06/21 06:44:05;;;;;;;0.73;0.50;;;38.00;19.60;;;;;;5048452;28;20033;-81
2022/06/21 06:46:36;;;;;;;2.55;0.80;;;38.00;20.30;;;;;;5065843;28;20467;-80
2022/06/21 06:49:23;;;;;;;5.78;0.50;;;38.20;19.50;;;;;;5065944;28;20400;-81
2022/06/21 06:52:08;;;;;;;1.27;0.60;;;38.30;19.00;;;;;;5066379;28;20032;-81
2022/06/21 06:54:56;;;;;;;1.50;0.52;;;38.20;18.60;;;;;;5064269;28;20029;-81
2022/06/21 06:57:31;;;;;;;1.75;0.77;;;38.50;18.00;;;;;;5064473;28;20067;-81
2022/06/21 06:59:59;;;;;;;0.80;0.80;;;38.50;18.60;;;;;;5065410;28;20512;-82
2022/06/21 07:02:39;;;;;;;1.05;0.70;;;38.50;18.40;;;;;;5048041;28;20028;-82
2022/06/21 07:05:26;;;;;;;1.88;0.60;;;38.60;20.70;;;;;;5064604;28;20119;-81
2022/06/21 07:07:56;;;;;;;0.77;0.43;;;38.60;22.50;;;;;;5066025;28;20293;-80
2022/06/21 07:10:25;;;;;;;1.50;0.40;;;38.40;22.20;;;;;;5047885;28;20473;-81
2022/06/21 07:12:52;;;;;;;1.67;0.52;;;38.30;21.60;;;;;;5065527;28;20028;-81
2022/06/21 07:15:23;;;;;;;2.83;0.68;;;38.40;22.20;;;;;;5064516;28;20067;-81
2022/06/21 07:17:56;;;;;;;3.85;0.50;;;38.70;21.60;;;;;;5064485;28;20028;-82
2022/06/21 07:20:35;;;;;;;5.20;0.65;;;38.50;21.00;;;;;;5069388;28;20034;-81
2022/06/21 07:23:02;;;;;;;5.45;0.47;;;38.50;20.60;;;;;;5069444;28;20524;-80
2022/06/21 07:25:36;;;;;;;0.80;0.50;;;38.50;20.60;;;;;;5069801;28;20099;-82
2022/06/21 07:28:19;;;;;;;2.25;0.47;;;38.20;20.80;;;;;;5067855;28;20024;-81
2022/06/21 07:30:48;;;;;;;1.17;0.52;;;38.10;21.00;;;;;;5067951;28;20053;-80
2022/06/21 07:33:28;;;;;;;1.27;0.60;;;38.10;20.80;;;;;;5051236;28;20431;-81
2022/06/21 07:36:01;;;;;;;2.25;0.50;;;37.80;20.70;;;;;;5051314;28;20047;-81
2022/06/21 07:38:52;;;;;;;1.38;0.47;;;37.40;21.30;;;;;;5069487;28;20040;-81
2022/06/21 07:41:23;;;;;;;0.73;0.50;;;37.30;21.70;;;;;;5069652;28;20035;-80
2022/06/21 07:43:52;;;;;;;1.83;0.63;;;37.00;21.60;;;;;;5069195;28;20032;-81
2022/06/21 07:46:30;;;;;;;0.70;0.57;;;37.00;21.70;;;;;;5050750;28;20135;-80
2022/06/21 07:49:12;;;;;;;1.05;0.50;;;37.00;21.50;;;;;;5050784;28;20033;-81
2022/06/21 07:51:47;;;;;;;7.47;0.70;;;37.10;21.60;;;;;;5068930;28;20036;-80
2022/06/21 07:54:45;;;;;;;1.05;0.60;;;36.90;21.60;;;;;;5068600;28;20377;-81
2022/06/21 07:57:16;;;;;;;1.83;0.50;;;36.70;21.80;;;;;;5034344;28;20064;-81
2022/06/21 07:59:59;;;;;;;7.55;0.55;;;36.60;22.10;;;;;;5050864;28;20128;-82
2022/06/21 08:08:29;;;;;;;3.47;0.45;;;35.90;19.80;;;;;;5068865;28;20097;-81
2022/06/21 08:10:55;;;;;;;;;;;35.90;20.10;;;;;;5067737;28;20052;-81
2022/06/21 08:13:20;;;;;;;2.83;0.40;;;35.70;20.20;;;;;;5067499;28;19974;-81
2022/06/21 08:16:03;;;;;;;1.27;0.77;;;35.60;20.80;;;;;;5050622;28;20028;-80
2022/06/21 08:18:42;;;;;;;3.60;0.52;;;35.60;21.20;;;;;;5067995;28;20048;-81
2022/06/21 08:21:22;;;;;;;4.78;0.75;;;35.80;22.00;;;;;;5068457;28;20424;-81
2022/06/21 08:24:06;;;;;;;3.72;0.73;;;36.00;21.70;;;;;;5067616;28;20055;-81
2022/06/21 08:26:34;;;;;;;3.60;0.50;;;36.10;21.70;;;;;;5068262;28;20029;-81
2022/06/21 08:29:01;;;;;;;1.48;0.60;;;35.80;21.50;;;;;;5066880;28;20029;-80
2022/06/21 08:31:36;;;;;;;4.43;0.50;;;35.70;21.70;;;;;;5067543;28;20060;-80
2022/06/21 08:34:35;;;;;;;0.70;0.40;;;35.90;22.30;;;;;;5067716;28;20040;-80
2022/06/21 08:37:21;;;;;;;0.90;0.50;;;36.10;22.30;;;;;;5050397;28;20305;-80
2022/06/21 08:40:44;;;;;;;1.80;0.65;;;36.10;22.70;;;;;;5050210;28;20032;-81
2022/06/21 08:43:19;;;;;;;2.78;0.77;;;36.30;23.00;;;;;;5067020;28;20043;-81
2022/06/21 08:46:11;;;;;;;3.17;0.50;;;36.20;23.20;;;;;;5066442;28;20110;-80
2022/06/21 08:48:49;;;;;;;1.00;0.50;;;35.80;23.80;;;;;;5066484;28;20036;-81
2022/06/21 08:51:17;;;;;;;4.75;0.57;;;35.80;24.00;;;;;;5067851;28;20036;-81
2022/06/21 08:54:04;;;;;;;1.80;0.60;;;35.90;23.90;;;;;;5066962;28;20013;-81
2022/06/21 08:56:49;;;;;;;1.65;0.50;;;35.90;23.70;;;;;;5066632;28;20720;-80
2022/06/21 08:59:23;;;;;;;2.58;0.50;;;35.70;23.50;;;;;;5067751;28;20036;-81
2022/06/21 09:02:07;;;;;;;3.83;0.50;;;35.70;23.50;;;;;;5066299;28;20047;-81
2022/06/21 09:04:58;;;;;;;0.98;0.40;;;35.80;21.50;;;;;;5067765;28;20119;-80
2022/06/21 09:07:46;;;;;;;0.65;0.50;;;35.80;20.20;;;;;;5067739;28;20043;-79
2022/06/21 09:10:12;;;;;;;1.95;0.60;;;35.30;20.30;;;;;;5067583;28;20508;-80
2022/06/21 09:13:18;;;;;;;3.83;0.60;;;34.90;21.20;;;;;;5066298;28;20063;-81
2022/06/21 09:15:56;;;;;;;2.25;0.50;;;35.00;20.80;;;;;;5067062;28;20085;-80
2022/06/21 09:18:46;;;;;;;1.70;0.50;;;34.80;21.80;;;;;;5065969;28;20381;-80
2022/06/21 09:21:21;;;;;;;6.95;0.60;;;35.10;22.00;;;;;;5067603;28;20028;-80
2022/06/21 09:23:53;;;;;;;;;;;34.90;21.90;;;;;;5066244;28;20443;-80
2022/06/21 09:26:31;;;;;;;1.52;0.50;;;34.80;21.70;;;;;;5067530;28;20299;-81
2022/06/21 09:29:21;;;;;;;11.07;0.60;;;34.90;21.50;;;;;;5066233;28;20063;-80
2022/06/21 09:31:52;;;;;;;2.58;0.57;;;35.20;22.00;;;;;;5065402;28;20078;-80
2022/06/21 09:34:29;;;;;;;5.13;0.70;;;35.30;21.50;;;;;;5065700;28;20254;-81
2022/06/21 09:37:16;;;;;;;1.60;0.50;;;35.40;21.60;;;;;;5067302;28;20032;-81
2022/06/21 09:40:16;;;;;;;1.23;0.50;;;35.60;21.40;;;;;;5065793;28;20048;-81
2022/06/21 09:43:05;;;;;;;0.60;0.40;;;35.60;22.00;;;;;;5027092;28;20375;-80
2022/06/21 09:45:38;;;;;;;3.08;0.47;;;35.60;22.30;;;;;;5065386;28;20501;-81
2022/06/21 09:48:11;;;;;;;5.22;1.00;;;35.90;22.50;;;;;;5065381;28;20408;-80
2022/06/21 09:50:57;;;;;;;4.55;0.63;;;36.10;22.50;;;;;;5066674;28;20024;-80
2022/06/21 09:53:45;;;;;;;1.20;0.40;;;36.10;22.40;;;;;;5066844;28;20052;-80
2022/06/21 09:56:20;;;;;;;2.40;0.68;;;35.70;22.50;;;;;;5066645;28;20041;-80
2022/06/21 09:59:04;;;;;;;4.45;0.65;;;35.60;21.70;;;;;;5064816;28;20025;-80
2022/06/21 10:01:47;;;;;;;1.27;0.73;;;35.10;21.50;;;;;;5048071;28;20028;-79
2022/06/21 10:04:59;;;;;;;1.05;0.47;;;34.50;21.50;;;;;;5065296;28;20031;-80
2022/06/21 10:07:33;;;;;;;3.80;0.50;;;33.60;21.60;;;;;;4965632;28;20041;-80
2022/06/21 10:10:26;;;;;;;1.60;0.50;;;32.80;22.20;;;;;;4965054;28;20039;-79
2022/06/21 10:13:07;;;;;;;3.05;0.60;;;32.40;22.80;;;;;;5041268;28;20120;-81
2022/06/21 10:15:43;;;;;;;4.03;0.50;;;31.80;22.70;;;;;;5064681;28;20041;-80
2022/06/21 10:18:51;;;;;;;5.97;0.55;;;31.60;23.00;;;;;;5064595;28;20032;-82
2022/06/21 10:21:39;;;;;;;1.27;0.60;;;31.60;22.50;;;;;;5065315;28;20128;-82
2022/06/21 10:24:42;;;;;;;1.77;0.68;;;31.10;22.40;;;;;;5064635;28;20199;-82
2022/06/21 10:27:32;;;;;;;2.17;0.40;;;30.70;22.20;;;;;;5066359;28;20047;-82
2022/06/21 10:30:16;;;;;;;3.85;0.60;;;30.20;21.70;;;;;;5065804;28;20055;-82
2022/06/21 10:33:00;;;;;;;6.30;0.55;;;29.80;22.40;;;;;;5064134;28;20525;-79
2022/06/21 10:36:02;;;;;;;1.85;0.60;;;29.50;22.40;;;;;;5066314;28;20409;-79
2022/06/21 10:38:45;;;;;;;1.10;0.40;;;29.20;23.30;;;;;;5066303;28;20029;-79
2022/06/21 10:41:19;;;;;;;6.70;0.45;;;29.30;23.90;;;;;;5066221;28;20627;-79
2022/06/21 10:44:03;;;;;;;0.65;0.40;;;29.10;24.20;;;;;;5065279;28;20461;-79
2022/06/21 10:46:44;;;;;;;0.55;0.30;;;29.10;24.20;;;;;;5064835;28;20031;-78
2022/06/21 10:49:39;;;;;;;2.85;0.60;;;29.20;24.30;;;;;;5047843;28;20035;-79
2022/06/21 10:52:33;;;;;;;3.90;0.60;;;28.90;23.90;;;;;;5048345;28;20052;-79
2022/06/21 10:55:24;;;;;;;1.38;0.45;;;28.80;24.20;;;;;;5070370;28;20040;-78
2022/06/21 10:58:05;;;;;;;2.75;0.40;;;28.90;25.00;;;;;;5023449;28;20048;-80
2022/06/21 11:04:13;;;;;;;1.33;0.40;;;28.90;25.30;;;;;;5070867;28;20032;-80
2022/06/21 11:06:50;;;;;;;2.35;0.60;;;29.10;26.10;;;;;;5068204;28;20382;-80
2022/06/21 11:09:37;;;;;;;3.97;0.40;;;29.10;25.20;;;;;;5070104;28;20024;-79
2022/06/21 11:15:35;;;;;;;3.08;0.50;;;29.30;27.40;;;;;;5069737;28;20166;-79
2022/06/21 11:18:27;;;;;;;5.88;0.50;;;29.40;26.40;;;;;;4968262;28;20082;-80
2022/06/21 11:20:53;;;;;;;1.33;0.50;;;29.40;25.10;;;;;;5050147;28;20123;-78
2022/06/21 11:23:40;;;;;;;5.63;0.70;;;29.40;26.70;;;;;;5070135;28;20108;-80
2022/06/21 11:26:34;;;;;;;4.07;0.40;;;29.40;27.50;;;;;;5068906;28;20040;-80
2022/06/21 11:29:22;;;;;;;0.50;0.30;;;29.20;25.30;;;;;;5067802;28;20029;-80
2022/06/21 11:32:03;;;;;;;8.88;0.85;;;28.80;25.60;;;;;;5067831;28;20167;-80
2022/06/21 11:34:55;;;;;;;1.42;0.50;;;28.70;26.60;;;;;;5051281;28;20070;-79
2022/06/21 11:38:05;;;;;;;1.92;0.50;;;28.90;27.20;;;;;;5068369;28;20029;-80
2022/06/21 11:40:48;;;;;;;2.10;0.50;;;28.90;27.50;;;;;;5050916;28;20028;-79
2022/06/21 11:43:44;;;;;;;1.55;0.43;;;28.90;27.70;;;;;;5069388;28;20032;-79
2022/06/21 11:46:37;;;;;;;1.25;0.52;;;28.90;27.80;;;;;;5067993;28;20036;-78
2022/06/21 11:49:23;;;;;;;10.40;0.50;;;29.00;27.70;;;;;;5069041;28;20020;-80
2022/06/21 11:52:22;;;;;;;2.78;1.00;;;29.10;27.80;;;;;;5051409;28;20090;-80
2022/06/21 11:55:25;;;;;;;1.85;0.50;;;29.20;27.30;;;;;;5028063;28;20039;-79
2022/06/21 11:58:01;;;;;;;1.85;0.85;;;29.10;27.70;;;;;;5069479;28;20037;-80
2022/06/21 12:00:35;;;;;;;2.30;0.65;;;29.10;27.70;;;;;;5068556;28;20017;-80
2022/06/21 12:03:03;;;;;;;3.47;0.57;;;29.10;27.80;;;;;;5068993;28;20033;-80
2022/06/21 12:05:42;;;;;;;9.07;0.70;;;29.20;27.70;;;;;;5066918;28;20025;-82
2022/06/21 12:08:11;;;;;;;1.42;0.45;;;29.20;27.60;;;;;;5069059;28;20032;-80
2022/06/21 12:10:55;;;;;;;4.50;0.40;;;29.10;27.30;;;;;;5067503;28;20753;-79
2022/06/21 12:13:35;;;;;;;6.07;0.70;;;29.00;27.20;;;;;;5069074;28;20082;-79
2022/06/21 12:16:17;;;;;;;2.25;0.52;;;29.10;27.40;;;;;;5067221;28;20246;-79
2022/06/21 12:18:51;;;;;;;2.88;0.40;;;29.10;26.80;;;;;;5067387;28;20766;-78
2022/06/21 12:21:30;;;;;;;2.50;0.40;;;29.10;26.80;;;;;;5068712;28;20044;-79
2022/06/21 12:24:04;;;;;;;1.55;0.40;;;29.10;26.60;;;;;;5067212;28;20124;-79
2022/06/21 12:26:32;;;;;;;4.57;0.80;;;29.10;26.10;;;;;;5067129;28;20044;-79
2022/06/21 12:28:59;;;;;;;1.08;0.45;;;29.10;26.10;;;;;;5068482;28;20207;-79
2022/06/21 12:31:31;;;;;;;3.47;0.60;;;29.10;26.20;;;;;;5050181;28;20132;-79
2022/06/21 12:34:07;;;;;;;2.33;0.50;;;29.10;26.40;;;;;;5067633;28;20083;-80
2022/06/21 12:36:50;;;;;;;1.98;0.35;;;29.10;25.10;;;;;;5068149;28;20511;-81
2022/06/21 12:39:30;;;;;;;3.92;0.70;;;29.10;25.50;;;;;;5068206;28;20028;-80
2022/06/21 12:42:24;;;;;;;1.75;0.50;;;29.10;25.80;;;;;;5066651;28;20265;-81
2022/06/21 12:45:27;;;;;;;2.15;0.50;;;29.00;24.50;;;;;;5066602;28;20036;-80
2022/06/21 12:48:13;;;;;;;3.35;0.35;;;28.90;24.90;;;;;;5068044;28;20029;-81
2022/06/21 12:50:49;;;;;;;3.20;0.40;;;28.90;25.40;;;;;;5067764;28;20025;-79
2022/06/21 12:53:47;;;;;;;2.38;0.68;;;28.80;25.60;;;;;;5066710;28;20577;-80
2022/06/21 12:56:39;;;;;;;14.93;0.60;;;28.70;26.00;;;;;;5066505;28;20131;-80
2022/06/21 12:59:21;;;;;;;2.92;0.40;;;28.70;26.30;;;;;;5067464;28;20020;-80
2022/06/21 13:02:22;;;;;;;7.38;0.40;;;28.70;26.10;;;;;;5069767;28;20033;-81
2022/06/21 13:05:16;;;;;;;5.50;0.65;;;28.70;26.30;;;;;;5066354;28;20036;-79
2022/06/21 13:08:12;;;;;;;4.15;0.50;;;28.70;26.30;;;;;;5067739;28;20077;-80
2022/06/21 13:11:11;;;;;;;5.80;0.77;;;28.70;26.10;;;;;;5066525;28;20021;-81
2022/06/21 13:13:42;;;;;;;3.53;0.40;;;28.70;26.30;;;;;;5066275;28;20029;-81
2022/06/21 13:16:12;;;;;;;1.55;0.52;;;28.80;26.10;;;;;;5065996;28;20032;-81
2022/06/21 13:18:50;;;;;;;2.13;0.52;;;28.80;26.40;;;;;;5065831;28;20021;-80
2022/06/21 13:21:37;;;;;;;3.22;0.88;;;28.80;26.30;;;;;;5067539;28;20048;-80
2022/06/21 13:24:12;;;;;;;3.42;0.60;;;28.80;26.20;;;;;;5066485;28;20060;-80
2022/06/21 13:26:46;;;;;;;1.83;0.60;;;28.80;26.20;;;;;;5067503;28;20101;-80
2022/06/21 13:29:35;;;;;;;1.63;0.43;;;28.80;26.00;;;;;;5065959;28;20069;-79
2022/06/21 13:32:06;;;;;;;7.10;0.73;;;28.80;26.40;;;;;;5065761;28;20059;-80
2022/06/21 13:34:47;;;;;;;5.88;0.60;;;28.80;26.10;;;;;;5065453;28;20047;-79
2022/06/21 13:37:27;;;;;;;1.50;0.30;;;28.70;26.10;;;;;;5065657;28;20028;-80
2022/06/21 13:40:11;;;;;;;2.15;0.73;;;28.60;25.90;;;;;;5048807;28;20032;-80
2022/06/21 13:43:16;;;;;;;3.20;0.50;;;28.60;26.10;;;;;;5066803;28;20877;-80
2022/06/21 13:46:14;;;;;;;1.27;0.50;;;28.60;25.20;;;;;;5065865;28;20075;-80
2022/06/21 13:48:51;;;;;;;3.97;0.50;;;28.50;24.10;;;;;;5065139;28;20119;-79
2022/06/21 13:51:18;;;;;;;2.92;0.40;;;28.50;24.50;;;;;;5048964;28;20024;-79
2022/06/21 13:54:11;;;;;;;1.35;0.35;;;28.50;25.60;;;;;;5065443;28;20024;-79
2022/06/21 13:56:51;;;;;;;3.50;0.50;;;28.40;25.50;;;;;;5065311;28;20424;-80
2022/06/21 13:59:56;;;;;;;3.28;0.60;;;28.40;25.80;;;;;;5048572;28;20025;-80
2022/06/21 14:02:37;;;;;;;5.07;0.35;;;28.40;26.10;;;;;;5011478;28;20101;-80